createdAt,value
2019-02-10T00:01:51.092Z,2.43
2019-02-10T00:04:20.466Z,2.43
2019-02-10T00:06:49.792Z,2.67
2019-02-10T00:09:19.458Z,2.77
2019-02-10T00:11:49.014Z,3.30
2019-02-10T00:14:18.554Z,2.77
2019-02-10T00:16:48.273Z,2.47
2019-02-10T00:19:17.896Z,2.50
2019-02-10T00:21:47.692Z,2.87
2019-02-10T00:24:17.370Z,2.73
2019-02-10T00:26:47.093Z,2.90
2019-02-10T00:29:16.748Z,3.17
2019-02-10T00:31:46.347Z,2.90
2019-02-10T00:34:15.942Z,2.57
2019-02-10T00:36:47.832Z,2.80
2019-02-10T00:39:17.154Z,2.87
2019-02-10T00:41:46.794Z,2.90
2019-02-10T00:44:16.424Z,2.37
2019-02-10T00:46:45.752Z,2.60
2019-02-10T00:49:15.245Z,3.33
2019-02-10T00:51:44.793Z,2.80
2019-02-10T00:54:14.080Z,2.40
2019-02-10T00:56:43.720Z,2.87
2019-02-10T00:59:44.211Z,2.67
2019-02-10T01:02:15.469Z,2.73
2019-02-10T01:04:44.488Z,2.87
2019-02-10T01:07:13.523Z,2.50
2019-02-10T01:09:42.655Z,2.60
2019-02-10T01:12:11.774Z,2.70
2019-02-10T01:14:40.950Z,2.70
2019-02-10T01:17:10.144Z,2.97
2019-02-10T01:19:39.115Z,3.20
2019-02-10T01:24:44.540Z,3.27
2019-02-10T01:27:13.627Z,2.60
2019-02-10T01:29:42.580Z,2.97
2019-02-10T01:32:11.815Z,2.93
2019-02-10T01:34:40.715Z,2.83
2019-02-10T01:39:51.941Z,2.53
2019-02-10T01:42:21.088Z,2.80
2019-02-10T01:44:50.288Z,2.80
2019-02-10T01:47:19.473Z,2.90
2019-02-10T01:49:48.529Z,2.83
2019-02-10T01:52:17.658Z,2.77
2019-02-10T01:54:46.820Z,2.40
2019-02-10T01:57:16.205Z,2.53
2019-02-10T01:59:45.160Z,2.83
2019-02-10T02:02:14.224Z,2.90
2019-02-10T02:04:43.309Z,3.03
2019-02-10T02:07:12.409Z,2.60
2019-02-10T02:09:41.611Z,3.03
2019-02-10T02:12:10.750Z,2.73
2019-02-10T02:14:39.867Z,2.50
2019-02-10T02:17:09.048Z,2.87
2019-02-10T02:19:38.328Z,2.40
2019-02-10T02:22:07.522Z,3.00
2019-02-10T02:24:36.542Z,2.87
2019-02-10T02:27:05.785Z,2.43
2019-02-10T02:29:34.904Z,2.83
2019-02-10T02:32:04.015Z,2.30
2019-02-10T02:34:33.067Z,2.53
2019-02-10T02:37:08.098Z,2.37
2019-02-10T02:39:33.019Z,2.67
2019-02-10T02:42:02.144Z,2.60
2019-02-10T02:44:31.997Z,2.50
2019-02-10T02:47:01.306Z,2.60
2019-02-10T02:49:30.327Z,2.80
2019-02-10T02:51:59.484Z,2.63
2019-02-10T02:57:04.483Z,2.83
2019-02-10T02:59:33.574Z,2.50
2019-02-10T03:02:02.815Z,2.47
2019-02-10T03:04:31.950Z,2.93
2019-02-10T03:07:01.060Z,2.40
2019-02-10T03:12:04.759Z,2.40
2019-02-10T03:14:33.753Z,2.67
2019-02-10T03:17:02.868Z,2.70
2019-02-10T03:19:32.899Z,2.50
2019-02-10T03:22:01.841Z,2.60
2019-02-10T03:24:30.925Z,2.50
2019-02-10T03:27:00.056Z,2.37
2019-02-10T03:29:29.132Z,2.83
2019-02-10T03:31:58.157Z,2.77
2019-02-10T03:34:27.172Z,2.57
2019-02-10T03:36:56.216Z,2.90
2019-02-10T03:39:25.409Z,2.60
2019-02-10T03:41:54.523Z,2.97
2019-02-10T03:44:23.526Z,2.60
2019-02-10T03:46:52.509Z,2.80
2019-02-10T03:49:21.555Z,2.97
2019-02-10T03:51:50.689Z,2.60
2019-02-10T03:54:19.657Z,2.23
2019-02-10T03:56:49.042Z,2.93
2019-02-10T03:59:18.270Z,2.73
2019-02-10T04:01:47.502Z,2.37
2019-02-10T04:04:16.519Z,3.27
2019-02-10T04:06:45.594Z,2.40
2019-02-10T04:09:14.665Z,2.60
2019-02-10T04:11:43.608Z,2.63
2019-02-10T04:14:12.574Z,2.90
2019-02-10T04:16:41.650Z,2.70
2019-02-10T04:19:10.686Z,2.30
2019-02-10T04:21:39.787Z,2.47
2019-02-10T04:24:08.837Z,1.97
2019-02-10T04:26:37.899Z,2.30
2019-02-10T04:29:06.829Z,2.60
2019-02-10T04:31:35.980Z,2.83
2019-02-10T04:34:05.060Z,3.00
2019-02-10T04:36:34.186Z,2.90
2019-02-10T04:39:04.332Z,2.50
2019-02-10T04:41:33.366Z,2.27
2019-02-10T04:52:29.614Z,2.90
2019-02-10T05:03:46.892Z,2.50
2019-02-10T05:06:16.105Z,2.80
2019-02-10T05:08:45.104Z,2.93
2019-02-10T05:11:14.307Z,2.13
2019-02-10T05:13:43.377Z,2.63
2019-02-10T05:16:12.478Z,2.57
2019-02-10T05:18:41.546Z,2.77
2019-02-10T05:21:10.577Z,2.33
2019-02-10T05:23:39.605Z,2.70
2019-02-10T05:26:08.749Z,2.57
2019-02-10T05:28:37.849Z,2.77
2019-02-10T05:31:06.913Z,2.10
2019-02-10T05:33:35.891Z,2.87
2019-02-10T05:36:04.940Z,2.60
2019-02-10T05:38:33.955Z,2.63
2019-02-10T05:41:02.801Z,2.97
2019-02-10T05:43:31.710Z,2.97
2019-02-10T05:46:00.587Z,2.50
2019-02-10T05:48:29.486Z,3.13
2019-02-10T05:50:58.335Z,2.73
2019-02-10T05:53:27.200Z,2.77
2019-02-10T05:55:56.064Z,3.40
2019-02-10T05:58:24.891Z,2.93
2019-02-10T06:00:53.741Z,2.90
2019-02-10T06:03:22.550Z,2.97
2019-02-10T06:05:51.374Z,2.40
2019-02-10T06:08:20.175Z,3.13
2019-02-10T06:10:49.002Z,2.60
2019-02-10T06:13:17.794Z,2.90
2019-02-10T06:15:46.628Z,2.90
2019-02-10T06:18:15.532Z,2.37
2019-02-10T06:20:44.364Z,3.00
2019-02-10T06:23:13.214Z,3.03
2019-02-10T06:25:42.036Z,2.50
2019-02-10T06:28:10.882Z,2.40
2019-02-10T06:30:39.688Z,2.87
2019-02-10T06:33:08.600Z,2.73
2019-02-10T06:35:37.404Z,2.40
2019-02-10T06:38:06.231Z,2.27
2019-02-10T06:40:35.039Z,2.20
2019-02-10T06:43:03.975Z,2.60
2019-02-10T06:45:32.780Z,2.40
2019-02-10T06:48:01.586Z,2.30
2019-02-10T06:50:30.386Z,2.57
2019-02-10T06:52:59.221Z,2.23
2019-02-10T06:55:28.063Z,2.63
2019-02-10T06:57:56.909Z,2.00
2019-02-10T07:00:43.866Z,2.50
2019-02-10T07:03:41.528Z,2.00
2019-02-10T07:06:11.216Z,2.20
2019-02-10T07:08:40.990Z,2.27
2019-02-10T07:11:09.823Z,2.17
2019-02-10T07:13:41.259Z,2.23
2019-02-10T07:16:38.851Z,2.60
2019-02-10T07:19:57.369Z,2.20
2019-02-10T07:23:19.974Z,1.90
2019-02-10T07:25:56.495Z,1.73
2019-02-10T07:29:18.642Z,2.00
2019-02-10T07:31:53.802Z,2.30
2019-02-10T07:34:50.871Z,2.10
2019-02-10T07:37:43.608Z,1.93
2019-02-10T07:40:48.650Z,1.80
2019-02-10T07:44:03.690Z,1.80
2019-02-10T07:46:53.163Z,1.90
2019-02-10T07:49:37.530Z,2.00
2019-02-10T07:52:37.754Z,1.70
2019-02-10T07:55:32.669Z,2.10
2019-02-10T07:58:39.166Z,2.03
2019-02-10T08:01:39.235Z,1.60
2019-02-10T08:04:34.753Z,2.10
2019-02-10T08:07:18.881Z,1.53
2019-02-10T08:09:55.064Z,1.77
2019-02-10T08:12:40.334Z,1.50
2019-02-10T08:15:21.818Z,1.97
2019-02-10T08:18:37.971Z,1.77
2019-02-10T08:21:23.935Z,1.90
2019-02-10T08:24:06.322Z,1.60
2019-02-10T08:26:50.657Z,1.90
2019-02-10T08:30:02.483Z,1.90
2019-02-10T08:32:59.931Z,1.70
2019-02-10T08:35:48.455Z,1.50
2019-02-10T08:38:45.594Z,1.80
2019-02-10T08:42:05.050Z,1.57
2019-02-10T08:44:48.717Z,1.47
2019-02-10T08:47:44.815Z,1.80
2019-02-10T08:50:51.109Z,1.60
2019-02-10T08:53:24.692Z,1.80
2019-02-10T08:55:53.623Z,1.83
2019-02-10T08:58:22.454Z,1.90
2019-02-10T09:00:51.299Z,2.00
2019-02-10T09:03:20.119Z,1.93
2019-02-10T09:05:48.951Z,2.00
2019-02-10T09:08:17.771Z,1.77
2019-02-10T09:10:46.648Z,1.80
2019-02-10T09:13:15.481Z,1.70
2019-02-10T09:15:44.383Z,1.63
2019-02-10T09:18:13.325Z,1.80
2019-02-10T09:20:42.214Z,1.50
2019-02-10T09:23:11.038Z,1.40
2019-02-10T09:25:39.853Z,1.20
2019-02-10T09:28:08.662Z,1.60
2019-02-10T09:30:37.500Z,1.27
2019-02-10T09:33:06.455Z,1.40
2019-02-10T09:35:35.275Z,1.40
2019-02-10T09:38:04.505Z,1.37
2019-02-10T09:40:33.422Z,1.30
2019-02-10T09:43:02.266Z,1.40
2019-02-10T09:45:31.095Z,1.60
2019-02-10T09:47:59.919Z,1.50
2019-02-10T09:50:28.743Z,1.37
2019-02-10T09:52:57.576Z,1.30
2019-02-10T09:55:26.502Z,1.40
2019-02-10T09:57:55.344Z,1.20
2019-02-10T10:00:24.347Z,1.60
2019-02-10T10:02:53.159Z,1.50
2019-02-10T10:05:21.967Z,1.50
2019-02-10T10:07:50.819Z,1.20
2019-02-10T10:10:19.626Z,1.30
2019-02-10T10:12:48.450Z,1.30
2019-02-10T10:15:17.355Z,1.33
2019-02-10T10:17:46.195Z,1.40
2019-02-10T10:20:16.311Z,1.60
2019-02-10T10:22:45.120Z,1.40
2019-02-10T10:25:13.986Z,1.43
2019-02-10T10:27:42.811Z,1.23
2019-02-10T10:30:14.209Z,1.50
2019-02-10T10:32:43.190Z,1.33
2019-02-10T10:35:12.179Z,1.30
2019-02-10T10:37:41.119Z,1.20
2019-02-10T10:40:10.072Z,1.17
2019-02-10T10:42:39.026Z,1.30
2019-02-10T10:45:08.570Z,1.30
2019-02-10T10:47:37.385Z,1.40
2019-02-10T10:50:07.186Z,1.53
2019-02-10T10:52:36.062Z,1.53
2019-02-10T10:55:05.566Z,1.50
2019-02-10T10:57:34.369Z,1.20
2019-02-10T11:00:03.610Z,1.20
2019-02-10T11:02:32.414Z,1.60
2019-02-10T11:05:01.227Z,1.30
2019-02-10T11:07:30.200Z,1.40
2019-02-10T11:09:59.054Z,1.50
2019-02-10T11:12:27.872Z,1.50
2019-02-10T11:14:56.735Z,1.40
2019-02-10T11:17:25.543Z,1.30
2019-02-10T11:19:54.350Z,1.00
2019-02-10T11:22:23.165Z,1.20
2019-02-10T11:24:52.220Z,1.10
2019-02-10T11:27:21.294Z,1.00
2019-02-10T11:29:50.208Z,0.90
2019-02-10T11:32:19.085Z,0.90
2019-02-10T11:34:47.970Z,1.00
2019-02-10T11:37:16.769Z,1.00
2019-02-10T11:39:45.641Z,0.87
2019-02-10T11:42:14.436Z,0.73
2019-02-10T11:44:43.403Z,0.60
2019-02-10T11:47:12.249Z,0.80
2019-02-10T11:49:41.099Z,0.83
2019-02-10T11:52:09.919Z,1.00
2019-02-10T11:54:38.895Z,0.90
2019-02-10T11:57:07.915Z,0.70
2019-02-10T11:59:37.092Z,0.73
2019-02-10T12:02:06.615Z,0.80
2019-02-10T12:04:35.496Z,0.77
2019-02-10T12:07:04.415Z,0.60
2019-02-10T12:09:33.530Z,0.80
2019-02-10T12:12:02.363Z,0.57
2019-02-10T12:14:31.357Z,0.73
2019-02-10T12:17:00.585Z,0.50
2019-02-10T12:19:29.434Z,0.60
2019-02-10T12:21:58.300Z,0.60
2019-02-10T12:24:27.134Z,0.73
2019-02-10T12:26:55.979Z,0.80
2019-02-10T12:29:24.924Z,0.70
2019-02-10T12:31:53.771Z,0.77
2019-02-10T12:34:23.014Z,0.77
2019-02-10T12:36:51.835Z,0.97
2019-02-10T12:39:20.662Z,1.00
2019-02-10T12:41:49.647Z,1.10
2019-02-10T12:44:18.476Z,0.80
2019-02-10T12:46:47.284Z,1.10
2019-02-10T12:49:17.411Z,0.90
2019-02-10T12:51:46.363Z,0.70
2019-02-10T12:54:15.198Z,0.87
2019-02-10T12:56:44.082Z,0.80
2019-02-10T12:59:12.926Z,0.70
2019-02-10T13:01:41.812Z,0.90
2019-02-10T13:04:10.619Z,0.77
2019-02-10T13:06:39.471Z,0.57
2019-02-10T13:09:12.694Z,0.77
2019-02-10T13:11:41.662Z,0.63
2019-02-10T13:14:10.471Z,0.80
2019-02-10T13:16:39.330Z,0.90
2019-02-10T13:19:08.346Z,0.73
2019-02-10T13:21:37.175Z,1.30
2019-02-10T13:24:06.073Z,1.00
2019-02-10T13:26:34.921Z,0.97
2019-02-10T13:29:03.842Z,0.97
2019-02-10T13:31:32.719Z,1.10
2019-02-10T13:34:01.786Z,0.90
2019-02-10T13:36:30.777Z,0.90
2019-02-10T13:38:59.777Z,1.00
2019-02-10T13:41:37.231Z,0.90
2019-02-10T13:44:06.773Z,1.10
2019-02-10T13:46:35.875Z,1.10
2019-02-10T13:49:04.774Z,1.20
2019-02-10T13:51:33.651Z,1.20
2019-02-10T13:54:02.443Z,1.27
2019-02-10T13:56:31.406Z,1.20
2019-02-10T13:59:00.410Z,1.07
2019-02-10T14:01:29.338Z,1.30
2019-02-10T14:03:58.215Z,1.53
2019-02-10T14:06:27.011Z,1.60
2019-02-10T14:08:55.840Z,1.47
2019-02-10T14:11:24.636Z,1.40
2019-02-10T14:13:54.510Z,1.60
2019-02-10T14:16:23.723Z,1.80
2019-02-10T14:18:52.615Z,1.40
2019-02-10T14:21:21.428Z,1.60
2019-02-10T14:23:50.265Z,1.90
2019-02-10T14:26:19.109Z,1.60
2019-02-10T14:28:47.918Z,1.90
2019-02-10T14:31:16.710Z,2.40
2019-02-10T14:33:45.561Z,2.43
2019-02-10T14:36:14.374Z,3.13
2019-02-10T14:38:43.267Z,2.83
2019-02-10T14:41:12.059Z,2.67
2019-02-10T14:43:40.877Z,3.20
2019-02-10T14:46:09.735Z,3.60
2019-02-10T14:48:38.538Z,3.30
2019-02-10T14:51:07.374Z,3.40
2019-02-10T14:53:36.214Z,3.47
2019-02-10T14:56:05.090Z,3.37
2019-02-10T14:58:42.786Z,3.67
2019-02-10T15:01:06.153Z,3.17
2019-02-10T15:03:34.964Z,3.50
2019-02-10T15:06:03.857Z,3.97
2019-02-10T15:08:32.679Z,4.00
2019-02-10T15:11:01.477Z,4.07
2019-02-10T15:13:30.308Z,3.50
2019-02-10T15:15:59.111Z,3.63
2019-02-10T15:18:27.931Z,4.20
2019-02-10T15:20:56.743Z,3.50
2019-02-10T15:23:25.554Z,3.00
2019-02-10T15:25:54.464Z,3.00
2019-02-10T15:28:23.367Z,3.40
2019-02-10T15:30:52.225Z,3.53
2019-02-10T15:33:21.056Z,3.93
2019-02-10T15:35:50.011Z,4.13
2019-02-10T15:38:20.336Z,4.17
2019-02-10T15:40:50.244Z,3.80
2019-02-10T15:43:19.354Z,3.90
2019-02-10T15:45:48.271Z,3.50
2019-02-10T15:48:17.120Z,3.57
2019-02-10T15:50:45.984Z,5.90
2019-02-10T15:53:14.797Z,4.33
2019-02-10T15:55:43.623Z,4.87
2019-02-10T15:58:12.491Z,4.97
2019-02-10T16:00:41.407Z,4.47
2019-02-10T16:03:10.235Z,4.53
2019-02-10T16:05:39.118Z,3.87
2019-02-10T16:08:07.954Z,3.87
2019-02-10T16:10:36.803Z,3.47
2019-02-10T16:13:05.609Z,2.83
2019-02-10T16:15:34.530Z,3.30
2019-02-10T16:18:03.336Z,3.00
2019-02-10T16:20:32.163Z,2.70
2019-02-10T16:23:01.063Z,2.70
2019-02-10T16:25:29.985Z,2.40
2019-02-10T16:27:58.793Z,2.13
2019-02-10T16:30:27.692Z,2.10
2019-02-10T16:32:56.493Z,1.90
2019-02-10T16:35:25.430Z,1.80
2019-02-10T16:37:54.445Z,1.50
2019-02-10T16:40:23.391Z,1.50
2019-02-10T16:42:52.287Z,1.50
2019-02-10T16:45:21.155Z,1.30
2019-02-10T16:47:50.015Z,1.40
2019-02-10T16:50:18.904Z,1.20
2019-02-10T16:52:47.723Z,1.40
2019-02-10T16:55:16.678Z,1.50
2019-02-10T16:57:45.597Z,1.40
2019-02-10T17:00:14.915Z,1.47
2019-02-10T17:02:43.884Z,1.53
2019-02-10T17:05:12.916Z,1.60
2019-02-10T17:07:41.829Z,1.90
2019-02-10T17:10:12.366Z,1.70
2019-02-10T17:12:41.191Z,1.80
2019-02-10T17:15:11.038Z,1.80
2019-02-10T17:17:39.911Z,1.93
2019-02-10T17:20:10.055Z,2.10
2019-02-10T17:22:38.866Z,2.07
2019-02-10T17:25:09.777Z,2.30
2019-02-10T17:27:38.650Z,2.37
2019-02-10T17:30:08.339Z,2.80
2019-02-10T17:32:37.231Z,2.50
2019-02-10T17:35:06.346Z,2.80
2019-02-10T17:37:35.219Z,2.70
2019-02-10T17:40:05.129Z,3.30
2019-02-10T17:42:33.935Z,3.27
2019-02-10T17:45:02.767Z,3.33
2019-02-10T17:47:31.655Z,3.80
2019-02-10T17:50:00.481Z,4.00
2019-02-10T17:52:31.959Z,4.33
2019-02-10T17:55:00.016Z,4.33
2019-02-10T17:57:28.871Z,4.50
2019-02-10T17:59:57.663Z,4.40
2019-02-10T18:02:26.582Z,4.90
2019-02-10T18:04:55.531Z,5.23
2019-02-10T18:07:24.429Z,4.90
2019-02-10T18:09:53.259Z,5.03
2019-02-10T18:12:22.189Z,5.37
2019-02-10T18:15:09.984Z,5.13
2019-02-10T18:17:53.863Z,4.10
2019-02-10T18:20:29.201Z,4.33
2019-02-10T18:23:23.203Z,4.30
2019-02-10T18:26:14.271Z,4.20
2019-02-10T18:29:01.302Z,4.00
2019-02-10T18:31:37.115Z,4.60
2019-02-10T18:34:11.582Z,4.60
2019-02-10T18:36:48.237Z,4.90
2019-02-10T18:39:24.947Z,3.60
2019-02-10T18:42:31.160Z,3.67
2019-02-10T18:45:32.532Z,3.50
2019-02-10T18:48:19.446Z,2.27
2019-02-10T18:51:19.629Z,2.03
2019-02-10T18:54:02.515Z,2.10
2019-02-10T18:57:01.088Z,2.17
2019-02-10T18:59:42.889Z,2.20
2019-02-10T19:02:19.661Z,2.07
2019-02-10T19:05:12.078Z,2.30
2019-02-10T19:08:02.232Z,2.00
2019-02-10T19:10:38.936Z,2.20
2019-02-10T19:13:18.243Z,2.00
2019-02-10T19:15:53.714Z,2.30
2019-02-10T19:18:31.014Z,2.40
2019-02-10T19:21:18.995Z,1.87
2019-02-10T19:24:10.089Z,1.90
2019-02-10T19:26:56.726Z,2.17
2019-02-10T19:29:43.242Z,2.17
2019-02-10T19:32:30.196Z,2.20
2019-02-10T19:35:21.257Z,1.93
2019-02-10T19:38:04.416Z,1.90
2019-02-10T19:40:49.745Z,2.10
2019-02-10T19:43:44.534Z,1.90
2019-02-10T19:46:25.890Z,2.00
2019-02-10T19:49:15.093Z,2.10
2019-02-10T19:52:04.171Z,1.97
2019-02-10T19:54:47.983Z,1.70
2019-02-10T19:57:36.055Z,1.83
2019-02-10T20:00:31.637Z,1.73
2019-02-10T20:03:19.802Z,1.50
2019-02-10T20:06:06.788Z,1.83
2019-02-10T20:08:59.292Z,2.00
2019-02-10T20:11:46.987Z,1.90
2019-02-10T20:14:36.941Z,1.90
2019-02-10T20:17:24.467Z,2.20
2019-02-10T20:20:18.561Z,2.07
2019-02-10T20:23:05.399Z,2.10
2019-02-10T20:25:41.156Z,1.77
2019-02-10T20:28:35.390Z,2.10
2019-02-10T20:31:16.570Z,1.80
2019-02-10T20:34:00.859Z,1.80
2019-02-10T20:37:01.108Z,1.60
2019-02-10T20:39:47.773Z,2.10
2019-02-10T20:42:44.872Z,2.10
2019-02-10T20:45:52.545Z,2.03
2019-02-10T20:48:50.599Z,2.30
2019-02-10T20:51:39.969Z,2.17
2019-02-10T20:54:18.387Z,2.37
2019-02-10T20:57:06.522Z,2.30
2019-02-10T20:59:50.171Z,2.60
2019-02-10T21:02:29.871Z,2.33
2019-02-10T21:05:26.688Z,2.60
2019-02-10T21:08:20.917Z,2.43
2019-02-10T21:11:23.092Z,3.20
2019-02-10T21:14:17.070Z,3.23
2019-02-10T21:17:04.064Z,3.30
2019-02-10T21:20:01.409Z,3.07
2019-02-10T21:22:50.085Z,4.90
2019-02-10T21:25:37.932Z,3.33
2019-02-10T21:28:13.536Z,3.07
2019-02-10T21:31:02.531Z,3.53
2019-02-10T21:33:43.823Z,2.97
2019-02-10T21:36:21.335Z,3.60
2019-02-10T21:39:08.409Z,3.10
2019-02-10T21:41:50.617Z,3.13
2019-02-10T21:44:45.074Z,3.20
2019-02-10T21:47:39.506Z,3.20
2019-02-10T21:50:08.668Z,2.90
2019-02-10T21:52:37.787Z,3.37
2019-02-10T21:55:07.765Z,3.50
2019-02-10T21:57:36.990Z,3.63
2019-02-10T22:00:07.859Z,3.43
2019-02-10T22:02:36.924Z,3.60
2019-02-10T22:05:06.156Z,4.20
2019-02-10T22:07:36.075Z,4.33
2019-02-10T22:10:07.294Z,3.93
2019-02-10T22:12:37.152Z,4.20
2019-02-10T22:15:08.665Z,4.90
2019-02-10T22:17:38.580Z,4.83
2019-02-10T22:20:10.781Z,4.90
2019-02-10T22:22:41.520Z,4.90
2019-02-10T22:25:10.781Z,5.50
2019-02-10T22:27:39.804Z,5.53
2019-02-10T22:30:12.563Z,6.53
2019-02-10T22:32:41.510Z,5.00
2019-02-10T22:35:10.418Z,5.63
2019-02-10T22:37:40.496Z,5.53
2019-02-10T22:40:09.737Z,6.27
2019-02-10T22:42:45.544Z,6.17
2019-02-10T22:45:11.255Z,7.00
2019-02-10T22:47:40.169Z,6.40
2019-02-10T22:50:11.908Z,6.50
2019-02-10T22:52:40.838Z,5.97
2019-02-10T22:55:10.913Z,6.53
2019-02-10T22:57:41.131Z,7.07
2019-02-10T23:00:48.192Z,9.57
2019-02-10T23:03:18.313Z,11.10
2019-02-10T23:05:49.394Z,6.93
2019-02-10T23:08:19.502Z,6.67
2019-02-10T23:10:48.409Z,6.10
2019-02-10T23:13:17.211Z,6.17
2019-02-10T23:15:46.120Z,6.80
2019-02-10T23:18:15.019Z,6.47
2019-02-10T23:20:43.972Z,6.63
2019-02-10T23:23:13.901Z,6.40
2019-02-10T23:25:42.973Z,6.07
2019-02-10T23:28:13.986Z,6.80
2019-02-10T23:30:42.942Z,6.77
2019-02-10T23:33:11.823Z,6.93
2019-02-10T23:35:40.712Z,6.83
2019-02-10T23:38:09.896Z,6.57
2019-02-10T23:40:39.143Z,6.70
2019-02-10T23:43:08.219Z,5.83
2019-02-10T23:45:38.216Z,6.00
2019-02-10T23:48:09.247Z,6.00
2019-02-10T23:50:38.172Z,5.67
2019-02-10T23:53:07.462Z,5.50
2019-02-10T23:55:37.522Z,5.03
2019-02-10T23:58:06.578Z,5.03
